Time;durP1;ratioP1;P1;durP2;ratioP2;P2;SDS_P1;SDS_P2;PMS_P1;PMS_P2;Temp;Humidity;BMP_temperature;BMP_pressure;BME280_temperature;BME280_humidity;BME280_pressure;Samples;Min_cycle;Max_cycle;Signal;HPM_P1;HPM_P2
2023/03/23 00:00:23;;;;;;;1.98;0.90;;;15.60;50.90;;;;;;4946166;28;20059;-45
2023/03/23 00:02:50;;;;;;;4.35;1.10;;;15.70;51.00;;;;;;4945691;28;20066;-47
2023/03/23 00:05:17;;;;;;;2.53;1.15;;;15.70;51.10;;;;;;4945747;28;20062;-47
2023/03/23 00:07:45;;;;;;;2.15;1.20;;;15.70;51.10;;;;;;4946998;28;20059;-44
2023/03/23 00:10:12;;;;;;;1.52;0.80;;;15.60;51.00;;;;;;4945950;28;20047;-46
2023/03/23 00:12:42;;;;;;;2.00;1.17;;;15.70;51.00;;;;;;4945026;28;20543;-45
2023/03/23 00:15:12;;;;;;;2.72;1.02;;;15.70;51.00;;;;;;4946163;28;20051;-48
2023/03/23 00:17:40;;;;;;;2.63;1.00;;;15.70;51.00;;;;;;4945147;28;20135;-44
2023/03/23 00:20:11;;;;;;;2.92;1.33;;;15.70;51.00;;;;;;4945601;28;20499;-45
2023/03/23 00:22:40;;;;;;;2.80;1.25;;;15.70;51.00;;;;;;4946250;28;20055;-45
2023/03/23 00:25:09;;;;;;;3.45;1.13;;;15.70;50.90;;;;;;4944843;28;20051;-45
2023/03/23 00:27:36;;;;;;;2.80;0.98;;;15.70;50.90;;;;;;4944933;28;20058;-48
2023/03/23 00:30:06;;;;;;;2.65;0.93;;;15.70;50.90;;;;;;4945374;28;20063;-47
2023/03/23 00:32:34;;;;;;;1.73;1.08;;;15.70;51.00;;;;;;4944807;28;20050;-48
2023/03/23 00:35:01;;;;;;;2.65;1.30;;;15.70;51.00;;;;;;4945086;28;20042;-47
2023/03/23 00:37:28;;;;;;;1.45;0.90;;;15.70;51.00;;;;;;4944578;28;20410;-47
2023/03/23 00:39:57;;;;;;;1.27;0.88;;;15.70;51.00;;;;;;4946269;28;20062;-46
2023/03/23 00:42:25;;;;;;;4.13;1.23;;;15.70;51.00;;;;;;4944231;28;20058;-46
2023/03/23 00:44:59;;;;;;;1.75;0.93;;;15.70;51.00;;;;;;4945731;28;20058;-46
2023/03/23 00:47:28;;;;;;;6.38;1.17;;;15.70;51.00;;;;;;4944664;28;20063;-46
2023/03/23 00:49:56;;;;;;;2.40;1.05;;;15.70;51.10;;;;;;4945869;28;20061;-45
2023/03/23 00:52:23;;;;;;;2.45;1.00;;;15.70;51.10;;;;;;4946403;28;20403;-45
2023/03/23 00:54:51;;;;;;;3.17;0.93;;;15.70;51.00;;;;;;4945163;28;20062;-44
2023/03/23 00:57:18;;;;;;;1.33;0.70;;;15.70;51.00;;;;;;4945995;28;20526;-46
2023/03/23 00:59:45;;;;;;;3.58;1.10;;;15.70;51.00;;;;;;4945282;28;20047;-54
2023/03/23 01:02:12;;;;;;;2.30;1.10;;;15.70;50.90;;;;;;4944728;28;20055;-46
2023/03/23 01:04:44;;;;;;;1.85;1.00;;;15.70;50.80;;;;;;4944192;28;20055;-46
2023/03/23 01:07:13;;;;;;;1.52;1.00;;;15.70;50.90;;;;;;4945108;28;20427;-48
2023/03/23 01:09:44;;;;;;;1.52;1.00;;;15.70;50.80;;;;;;4944947;28;20055;-46
2023/03/23 01:12:12;;;;;;;2.47;1.10;;;15.70;50.80;;;;;;4944428;28;20055;-58
2023/03/23 01:14:39;;;;;;;3.95;0.98;;;15.70;50.80;;;;;;4947562;28;20051;-45
2023/03/23 01:17:08;;;;;;;1.85;1.08;;;15.70;50.80;;;;;;4945277;28;20496;-49
2023/03/23 01:19:40;;;;;;;2.50;1.10;;;15.70;50.80;;;;;;4944492;28;20055;-47
2023/03/23 01:22:09;;;;;;;1.30;0.98;;;15.70;50.80;;;;;;4944339;28;20086;-45
2023/03/23 01:24:36;;;;;;;2.33;1.10;;;15.70;50.90;;;;;;4944351;28;20058;-44
2023/03/23 01:27:06;;;;;;;1.75;0.90;;;15.70;51.00;;;;;;4943228;28;20504;-45
2023/03/23 01:29:34;;;;;;;3.50;1.20;;;15.70;51.00;;;;;;4943313;28;20058;-45
2023/03/23 01:32:01;;;;;;;2.28;0.98;;;15.70;51.00;;;;;;4945366;28;20047;-47
2023/03/23 01:34:28;;;;;;;3.38;1.10;;;15.70;51.10;;;;;;4944540;28;20062;-44
2023/03/23 01:36:56;;;;;;;2.58;1.10;;;15.70;51.10;;;;;;4942935;28;20157;-49
2023/03/23 01:39:24;;;;;;;3.50;1.00;;;15.70;51.10;;;;;;4943016;28;20142;-46
2023/03/23 01:41:52;;;;;;;1.30;0.80;;;15.70;51.10;;;;;;4943164;28;20065;-44
2023/03/23 01:44:56;;;;;;;1.98;0.90;;;15.70;51.20;;;;;;4944737;28;20066;-46
2023/03/23 01:47:26;;;;;;;1.80;1.00;;;15.70;51.40;;;;;;4944028;28;20054;-45
2023/03/23 01:49:53;;;;;;;2.35;0.88;;;15.70;51.40;;;;;;4942861;28;20070;-46
2023/03/23 01:52:23;;;;;;;0.93;0.70;;;15.70;51.50;;;;;;4942866;28;20055;-46
2023/03/23 01:54:53;;;;;;;3.03;0.73;;;15.70;52.00;;;;;;4942681;28;20469;-45
2023/03/23 01:57:27;;;;;;;1.70;0.90;;;15.70;51.50;;;;;;4943199;28;20047;-46
2023/03/23 01:59:57;;;;;;;1.43;1.10;;;15.60;51.50;;;;;;4944633;28;20059;-46
2023/03/23 02:02:26;;;;;;;1.95;1.00;;;15.60;51.50;;;;;;4944199;28;20501;-46
2023/03/23 02:05:00;;;;;;;2.55;1.00;;;15.60;51.60;;;;;;4945929;28;20074;-44
2023/03/23 02:07:27;;;;;;;3.70;1.20;;;15.60;51.60;;;;;;4944561;28;20054;-46
2023/03/23 02:09:56;;;;;;;1.77;0.90;;;15.60;51.60;;;;;;4944847;28;20059;-47
2023/03/23 02:12:24;;;;;;;2.88;0.90;;;15.60;51.60;;;;;;4942044;28;20064;-44
2023/03/23 02:14:51;;;;;;;3.17;0.90;;;15.60;51.60;;;;;;4943975;28;20508;-44
2023/03/23 02:17:26;;;;;;;1.55;0.70;;;15.60;51.60;;;;;;4944104;28;20077;-45
2023/03/23 02:20:13;;;;;;;2.55;0.80;;;15.60;51.70;;;;;;4943400;28;20058;-44
2023/03/23 02:23:19;;;;;;;1.55;0.73;;;15.60;52.00;;;;;;4944011;28;20475;-44
2023/03/23 02:26:11;;;;;;;1.33;0.55;;;15.60;51.90;;;;;;4944077;28;20072;-45
2023/03/23 02:28:55;;;;;;;2.30;0.90;;;15.60;51.90;;;;;;4944161;28;20507;-45
2023/03/23 02:31:54;;;;;;;1.70;0.90;;;15.60;52.40;;;;;;4944120;28;20526;-45
2023/03/23 02:34:28;;;;;;;3.55;1.00;;;15.50;52.00;;;;;;4932569;28;20495;-44
2023/03/23 02:37:02;;;;;;;2.78;1.00;;;15.50;52.00;;;;;;4944382;28;20058;-44
2023/03/23 02:39:31;;;;;;;;;;;15.50;52.00;;;;;;4946943;28;20058;-46
2023/03/23 02:42:03;;;;;;;1.45;0.90;;;15.60;52.00;;;;;;4944523;28;20335;-45
2023/03/23 02:44:32;;;;;;;3.10;1.13;;;15.50;52.00;;;;;;4943599;28;20055;-46
2023/03/23 02:47:02;;;;;;;1.42;1.02;;;15.50;52.10;;;;;;4944562;28;20047;-45
2023/03/23 02:49:35;;;;;;;1.48;0.85;;;15.50;52.10;;;;;;4943335;28;20055;-44
2023/03/23 02:52:12;;;;;;;2.13;0.90;;;15.50;52.30;;;;;;4944607;28;20047;-45
2023/03/23 02:54:40;;;;;;;1.58;0.80;;;15.50;52.30;;;;;;4943485;28;20063;-46
2023/03/23 02:57:08;;;;;;;4.35;1.00;;;15.50;52.30;;;;;;4942935;28;20055;-44
2023/03/23 02:59:35;;;;;;;1.58;1.05;;;15.40;52.20;;;;;;4943615;28;20476;-44
2023/03/23 03:02:07;;;;;;;1.92;1.10;;;15.40;52.30;;;;;;4943408;28;20055;-45
2023/03/23 03:04:40;;;;;;;2.13;0.88;;;15.40;52.40;;;;;;4942791;28;20084;-45
2023/03/23 03:07:18;;;;;;;2.43;1.13;;;15.40;52.40;;;;;;4943771;28;20071;-44
2023/03/23 03:09:50;;;;;;;3.80;0.90;;;15.40;52.40;;;;;;4943748;28;20503;-47
2023/03/23 03:12:26;;;;;;;2.10;0.80;;;15.40;52.50;;;;;;4945634;28;20059;-45
2023/03/23 03:15:07;;;;;;;1.73;1.20;;;15.40;52.60;;;;;;4948004;28;20142;-44
2023/03/23 03:17:39;;;;;;;2.47;0.80;;;15.40;52.60;;;;;;4946978;28;21556;-44
2023/03/23 03:20:11;;;;;;;1.35;0.90;;;15.40;52.70;;;;;;4946004;28;20074;-44
2023/03/23 03:22:41;;;;;;;3.95;1.10;;;15.40;52.70;;;;;;4945753;28;20055;-44
2023/03/23 03:25:12;;;;;;;2.45;0.80;;;15.30;52.70;;;;;;4947240;28;20075;-46
2023/03/23 03:27:41;;;;;;;3.20;1.27;;;15.30;52.80;;;;;;4946805;28;21032;-46
2023/03/23 03:30:12;;;;;;;3.35;1.10;;;15.40;52.80;;;;;;4947515;28;20054;-44
2023/03/23 03:32:46;;;;;;;2.35;1.00;;;15.40;52.90;;;;;;4946513;28;20061;-46
2023/03/23 03:35:15;;;;;;;1.80;1.00;;;15.30;52.90;;;;;;4945550;28;20059;-45
2023/03/23 03:37:43;;;;;;;1.38;0.80;;;15.30;52.90;;;;;;4945646;28;20047;-44
2023/03/23 03:40:13;;;;;;;1.63;0.93;;;15.30;52.90;;;;;;4946716;28;20146;-44
2023/03/23 03:42:42;;;;;;;2.53;0.80;;;15.30;52.90;;;;;;4946161;28;20507;-43
2023/03/23 03:45:14;;;;;;;1.98;1.00;;;15.30;53.10;;;;;;4946170;28;20059;-45
2023/03/23 03:47:42;;;;;;;1.92;0.70;;;15.30;53.00;;;;;;4947350;28;20070;-47
2023/03/23 03:50:10;;;;;;;1.45;0.82;;;15.30;53.00;;;;;;4944435;28;20047;-45
2023/03/23 03:52:40;;;;;;;2.08;0.80;;;15.30;53.10;;;;;;4946590;28;20051;-45
2023/03/23 03:55:09;;;;;;;1.58;0.95;;;15.30;53.10;;;;;;4945337;28;20475;-44
2023/03/23 03:57:36;;;;;;;2.22;0.85;;;15.30;53.00;;;;;;4945590;28;20054;-44
2023/03/23 04:00:14;;;;;;;2.00;1.00;;;15.20;53.00;;;;;;4945095;28;20055;-47
2023/03/23 04:02:42;;;;;;;1.85;0.95;;;15.20;53.00;;;;;;4946657;28;20062;-47
2023/03/23 04:05:13;;;;;;;1.70;0.70;;;15.20;53.10;;;;;;4945646;28;20059;-47
2023/03/23 04:07:42;;;;;;;1.30;0.90;;;15.20;53.10;;;;;;4945361;28;20051;-44
2023/03/23 04:10:12;;;;;;;2.50;1.15;;;15.20;53.20;;;;;;4946789;28;20063;-46
2023/03/23 04:12:40;;;;;;;1.45;0.70;;;15.20;53.20;;;;;;4945867;28;20065;-45
2023/03/23 04:15:08;;;;;;;2.00;1.10;;;15.20;53.20;;;;;;4946028;28;20059;-44
2023/03/23 04:17:35;;;;;;;2.35;0.90;;;15.10;53.20;;;;;;4946432;28;20422;-46
2023/03/23 04:20:07;;;;;;;1.65;0.90;;;15.20;53.30;;;;;;4946341;28;21744;-45
2023/03/23 04:22:34;;;;;;;1.65;1.15;;;15.20;53.40;;;;;;4946281;28;20062;-43
2023/03/23 04:25:05;;;;;;;1.00;0.80;;;15.20;53.50;;;;;;4946439;28;20066;-44
2023/03/23 04:27:34;;;;;;;2.25;0.80;;;15.20;53.50;;;;;;4944050;28;20503;-45
2023/03/23 04:30:04;;;;;;;1.40;0.90;;;15.20;53.60;;;;;;4933214;28;20051;-44
2023/03/23 04:32:32;;;;;;;2.22;0.80;;;15.20;53.50;;;;;;4944390;28;20051;-45
2023/03/23 04:35:00;;;;;;;1.50;1.00;;;15.20;53.50;;;;;;4945655;28;20063;-45
2023/03/23 04:37:28;;;;;;;2.28;1.00;;;15.20;53.60;;;;;;4944673;28;20492;-46
2023/03/23 04:40:00;;;;;;;1.92;0.77;;;15.20;53.60;;;;;;4947063;28;20055;-43
2023/03/23 04:42:31;;;;;;;2.33;0.98;;;15.20;53.60;;;;;;4945809;28;20051;-47
2023/03/23 04:45:01;;;;;;;1.80;0.90;;;15.20;53.60;;;;;;4927904;28;20521;-45
2023/03/23 04:47:29;;;;;;;2.03;0.90;;;15.20;53.60;;;;;;4945315;28;20055;-46
2023/03/23 04:49:57;;;;;;;1.85;0.93;;;15.20;53.60;;;;;;4946953;28;20504;-45
2023/03/23 04:52:25;;;;;;;1.67;0.90;;;15.20;53.60;;;;;;4945556;28;20511;-45
2023/03/23 04:54:53;;;;;;;3.38;1.13;;;15.20;53.60;;;;;;4946773;28;20055;-46
2023/03/23 04:57:20;;;;;;;6.50;1.15;;;15.20;54.10;;;;;;4944782;28;20047;-44
2023/03/23 04:59:49;;;;;;;1.20;0.80;;;15.20;53.60;;;;;;4946408;28;20071;-45
2023/03/23 05:02:17;;;;;;;2.00;0.80;;;15.20;53.60;;;;;;4944995;28;20066;-46
2023/03/23 05:04:44;;;;;;;1.00;0.82;;;15.20;53.60;;;;;;4944025;28;20424;-49
2023/03/23 05:07:14;;;;;;;1.50;1.10;;;15.20;53.60;;;;;;4943096;28;20066;-44
2023/03/23 05:09:42;;;;;;;2.50;0.98;;;15.20;53.60;;;;;;4946392;28;20487;-47
2023/03/23 05:12:11;;;;;;;3.33;0.93;;;15.20;53.60;;;;;;4945164;28;20418;-45
2023/03/23 05:14:42;;;;;;;1.20;1.10;;;15.20;54.20;;;;;;4943118;28;20055;-44
2023/03/23 05:17:12;;;;;;;0.93;0.80;;;15.20;53.70;;;;;;4944968;28;20047;-44
2023/03/23 05:19:41;;;;;;;1.88;1.00;;;15.20;53.70;;;;;;4945931;28;20066;-43
2023/03/23 05:22:12;;;;;;;17.55;7.82;;;15.20;53.70;;;;;;4943655;28;20058;-46
2023/03/23 05:24:42;;;;;;;6.43;3.25;;;15.20;53.70;;;;;;4946396;28;20475;-43
2023/03/23 05:27:10;;;;;;;3.40;1.67;;;15.20;53.60;;;;;;4944764;28;20055;-48
2023/03/23 05:29:40;;;;;;;2.97;1.10;;;15.20;53.70;;;;;;4946772;28;20054;-46
2023/03/23 05:32:08;;;;;;;3.15;1.13;;;15.20;53.70;;;;;;4944257;28;20059;-46
2023/03/23 05:34:38;;;;;;;1.95;1.05;;;15.20;53.70;;;;;;4943785;28;20062;-44
2023/03/23 05:37:09;;;;;;;2.22;0.95;;;15.20;53.70;;;;;;4944215;28;20526;-44
2023/03/23 05:39:39;;;;;;;1.10;0.80;;;15.10;53.70;;;;;;4946307;28;20724;-49
2023/03/23 05:42:13;;;;;;;2.40;1.00;;;15.20;53.70;;;;;;4944486;28;20063;-48
2023/03/23 05:44:41;;;;;;;;;;;15.20;53.70;;;;;;4946611;28;20059;-48
2023/03/23 05:47:09;;;;;;;2.00;0.95;;;15.20;53.80;;;;;;4945872;28;20387;-46
2023/03/23 05:49:38;;;;;;;3.88;0.95;;;15.20;53.60;;;;;;4944021;28;20158;-45
2023/03/23 05:52:07;;;;;;;2.28;1.05;;;15.20;53.60;;;;;;4945344;28;20066;-45
2023/03/23 05:54:35;;;;;;;2.55;1.23;;;15.20;53.70;;;;;;4944049;28;20440;-44
2023/03/23 05:57:03;;;;;;;2.10;1.05;;;15.10;53.60;;;;;;4943236;28;20062;-44
2023/03/23 05:59:30;;;;;;;2.85;0.90;;;15.10;53.60;;;;;;4946211;28;20487;-48
2023/03/23 06:01:58;;;;;;;2.28;0.88;;;15.10;53.70;;;;;;4947138;28;20142;-45
2023/03/23 06:04:26;;;;;;;1.92;0.80;;;15.10;53.70;;;;;;4945502;28;20367;-44
2023/03/23 06:06:55;;;;;;;2.75;1.10;;;15.10;53.70;;;;;;4944266;28;20067;-43
2023/03/23 06:09:24;;;;;;;1.15;0.80;;;15.00;53.70;;;;;;4944429;28;20515;-46
2023/03/23 06:11:52;;;;;;;2.35;1.10;;;15.10;53.70;;;;;;4943257;28;20592;-44
2023/03/23 06:14:19;;;;;;;2.65;1.10;;;15.10;53.70;;;;;;4943694;28;20062;-46
2023/03/23 06:16:47;;;;;;;1.98;0.90;;;15.10;53.60;;;;;;4945750;28;20066;-46
2023/03/23 06:19:14;;;;;;;2.35;1.05;;;15.00;53.50;;;;;;4944150;28;20055;-44
2023/03/23 06:21:41;;;;;;;2.72;1.42;;;15.10;53.50;;;;;;4945659;28;20407;-47
2023/03/23 06:24:10;;;;;;;2.03;0.90;;;15.10;53.40;;;;;;4942449;28;20105;-44
2023/03/23 06:26:40;;;;;;;2.50;1.17;;;15.10;53.40;;;;;;4942641;28;20070;-44
2023/03/23 06:29:11;;;;;;;1.70;0.90;;;15.10;53.40;;;;;;4945961;28;20058;-44
2023/03/23 06:31:40;;;;;;;2.33;1.23;;;15.10;53.40;;;;;;4942987;28;20066;-48
2023/03/23 06:34:08;;;;;;;3.03;1.20;;;15.10;53.40;;;;;;4942940;28;20535;-46
2023/03/23 06:36:35;;;;;;;1.40;0.90;;;15.10;53.30;;;;;;4943952;28;20051;-44
2023/03/23 06:39:05;;;;;;;1.88;1.00;;;15.20;53.40;;;;;;4944314;28;20055;-44
2023/03/23 06:41:34;;;;;;;1.80;0.90;;;15.20;53.30;;;;;;4942445;28;20082;-44
2023/03/23 06:44:01;;;;;;;1.92;1.00;;;15.20;53.30;;;;;;4943424;28;20059;-44
2023/03/23 06:46:29;;;;;;;3.28;1.10;;;15.20;53.30;;;;;;4946360;28;20077;-47
2023/03/23 06:48:56;;;;;;;2.97;0.80;;;15.20;53.30;;;;;;4947270;28;20047;-48
2023/03/23 06:51:24;;;;;;;2.20;1.02;;;15.20;53.20;;;;;;4947046;28;20491;-46
2023/03/23 06:53:51;;;;;;;4.75;1.15;;;15.20;53.20;;;;;;4947324;28;20051;-44
2023/03/23 06:56:18;;;;;;;2.35;1.45;;;15.30;53.20;;;;;;4946299;28;20054;-47
2023/03/23 06:58:47;;;;;;;3.00;0.90;;;15.30;53.20;;;;;;4947311;28;20047;-45
2023/03/23 07:01:15;;;;;;;3.00;0.82;;;15.30;53.10;;;;;;4947652;28;20051;-47
2023/03/23 07:03:43;;;;;;;2.03;1.13;;;15.30;53.10;;;;;;4946403;28;20748;-48
2023/03/23 07:06:13;;;;;;;2.92;1.10;;;15.30;53.10;;;;;;4947165;28;20043;-44
2023/03/23 07:08:41;;;;;;;3.67;1.00;;;15.40;53.00;;;;;;4947719;28;20369;-45
2023/03/23 07:11:09;;;;;;;2.60;0.75;;;15.40;53.00;;;;;;4947333;28;20510;-44
2023/03/23 07:13:37;;;;;;;3.20;0.98;;;15.40;52.90;;;;;;4946709;28;20675;-45
2023/03/23 07:16:08;;;;;;;1.50;0.70;;;15.40;52.90;;;;;;4946364;28;20054;-46
2023/03/23 07:18:36;;;;;;;2.25;1.17;;;15.40;52.80;;;;;;4943942;28;20051;-44
2023/03/23 07:21:03;;;;;;;2.70;0.82;;;15.40;52.80;;;;;;4945711;28;20054;-49
2023/03/23 07:23:31;;;;;;;3.13;1.10;;;15.40;52.60;;;;;;4946385;28;20058;-49
2023/03/23 07:25:58;;;;;;;2.38;1.10;;;15.40;52.60;;;;;;4944977;28;20070;-46
2023/03/23 07:28:26;;;;;;;3.55;0.90;;;15.40;52.50;;;;;;4948624;28;20404;-46
2023/03/23 07:30:53;;;;;;;3.03;1.30;;;15.40;52.50;;;;;;4947737;28;20421;-45
2023/03/23 07:33:22;;;;;;;4.07;0.80;;;15.50;52.50;;;;;;4947422;28;20058;-45
2023/03/23 07:35:49;;;;;;;4.53;1.30;;;15.50;52.40;;;;;;4947050;28;20074;-44
2023/03/23 07:38:17;;;;;;;2.70;1.10;;;15.50;52.30;;;;;;4946562;28;20062;-47
2023/03/23 07:40:44;;;;;;;5.07;1.85;;;15.50;52.40;;;;;;4946640;28;20058;-46
2023/03/23 07:43:14;;;;;;;3.92;1.30;;;15.50;52.30;;;;;;4946099;28;20431;-47
2023/03/23 07:45:41;;;;;;;1.92;1.10;;;15.50;52.30;;;;;;4948630;28;20503;-48
2023/03/23 07:48:08;;;;;;;3.53;1.30;;;15.60;52.30;;;;;;4945229;28;20487;-47
2023/03/23 07:50:37;;;;;;;1.67;1.00;;;15.50;52.20;;;;;;4946858;28;20123;-44
2023/03/23 07:53:05;;;;;;;3.80;1.00;;;15.60;52.00;;;;;;4945625;28;20063;-46
2023/03/23 07:55:33;;;;;;;2.67;1.30;;;15.60;51.90;;;;;;4944506;28;20055;-46
2023/03/23 07:58:00;;;;;;;3.50;1.02;;;15.60;51.80;;;;;;4944404;28;20081;-45
2023/03/23 08:00:28;;;;;;;4.50;1.05;;;15.60;51.70;;;;;;4947408;28;20070;-44
2023/03/23 08:02:58;;;;;;;2.67;0.85;;;15.70;51.60;;;;;;4947338;28;20059;-46
2023/03/23 08:05:27;;;;;;;2.83;1.15;;;15.70;51.50;;;;;;4945630;28;20423;-44
2023/03/23 08:07:56;;;;;;;1.60;0.90;;;15.70;51.40;;;;;;4945943;28;20062;-47
2023/03/23 08:10:24;;;;;;;2.42;1.02;;;15.70;51.40;;;;;;4945250;28;20376;-48
2023/03/23 08:12:53;;;;;;;3.28;0.95;;;15.70;51.40;;;;;;4944373;28;20062;-49
2023/03/23 08:15:21;;;;;;;3.53;0.95;;;15.80;51.30;;;;;;4946045;28;20055;-48
2023/03/23 08:17:50;;;;;;;2.42;1.00;;;15.80;51.20;;;;;;4946761;28;20058;-49
2023/03/23 08:20:18;;;;;;;1.75;0.80;;;15.80;51.20;;;;;;4944443;28;20047;-50
2023/03/23 08:22:52;;;;;;;2.17;1.10;;;15.80;51.10;;;;;;4946857;28;20055;-45
2023/03/23 08:25:21;;;;;;;;;;;15.90;51.10;;;;;;4945057;28;20081;-44
2023/03/23 08:27:48;;;;;;;2.25;1.13;;;15.90;51.20;;;;;;4944684;28;19931;-45
2023/03/23 08:30:19;;;;;;;4.03;1.05;;;15.90;51.00;;;;;;4942816;28;20067;-47
2023/03/23 08:32:47;;;;;;;13.23;4.32;;;15.90;50.90;;;;;;4946913;28;20070;-47
2023/03/23 08:35:16;;;;;;;59.55;23.15;;;15.90;50.80;;;;;;4946150;28;20058;-46
2023/03/23 08:37:43;;;;;;;40.15;23.80;;;15.90;50.80;;;;;;4945785;28;20051;-45
2023/03/23 08:40:13;;;;;;;13.15;7.70;;;16.00;50.80;;;;;;4943860;28;20508;-44
2023/03/23 08:42:44;;;;;;;6.22;2.88;;;16.00;50.80;;;;;;4942556;28;20055;-49
2023/03/23 08:45:15;;;;;;;3.17;1.30;;;16.00;50.80;;;;;;4944893;28;20059;-48
2023/03/23 08:47:44;;;;;;;3.97;1.50;;;16.00;50.60;;;;;;4943911;28;21376;-44
2023/03/23 08:50:17;;;;;;;5.05;1.48;;;16.00;50.50;;;;;;4946963;28;20061;-44
2023/03/23 08:52:45;;;;;;;3.33;1.20;;;16.00;50.40;;;;;;4943513;28;20500;-47
2023/03/23 08:55:12;;;;;;;3.80;1.00;;;16.00;50.40;;;;;;4943905;28;20051;-46
2023/03/23 08:57:42;;;;;;;3.42;1.13;;;16.00;50.40;;;;;;4942642;28;20376;-47
2023/03/23 09:00:17;;;;;;;2.13;1.00;;;16.10;50.50;;;;;;4945693;28;20058;-44
2023/03/23 09:02:47;;;;;;;4.57;1.70;;;16.10;50.40;;;;;;4944954;28;20495;-45
2023/03/23 09:05:15;;;;;;;9.25;1.40;;;16.10;50.50;;;;;;4945586;28;20588;-45
2023/03/23 09:07:46;;;;;;;3.40;1.20;;;16.20;50.50;;;;;;4947181;28;20508;-46
2023/03/23 09:10:17;;;;;;;5.40;1.40;;;16.10;50.40;;;;;;4946764;28;20062;-46
2023/03/23 09:12:45;;;;;;;3.10;1.13;;;16.20;50.40;;;;;;4943423;28;20051;-44
2023/03/23 09:15:17;;;;;;;2.13;1.20;;;16.20;50.20;;;;;;4945334;28;20051;-48
2023/03/23 09:17:47;;;;;;;2.50;1.15;;;16.20;50.10;;;;;;4946302;28;20517;-45
2023/03/23 09:20:20;;;;;;;5.55;1.52;;;16.30;50.10;;;;;;4944577;28;20407;-44
2023/03/23 09:22:52;;;;;;;2.60;1.00;;;16.30;50.10;;;;;;4945189;28;20527;-48
2023/03/23 09:25:22;;;;;;;2.70;1.20;;;16.30;50.00;;;;;;4945336;28;20055;-46
2023/03/23 09:27:56;;;;;;;3.38;1.20;;;16.30;50.00;;;;;;4944719;28;20086;-45
2023/03/23 09:30:26;;;;;;;3.42;1.30;;;16.40;49.90;;;;;;4944351;28;20050;-46
2023/03/23 09:32:57;;;;;;;1.13;0.80;;;16.40;49.80;;;;;;4944716;28;20400;-44
2023/03/23 09:35:25;;;;;;;2.15;1.15;;;16.40;49.80;;;;;;4943951;28;20059;-45
2023/03/23 09:38:00;;;;;;;3.50;1.30;;;16.40;49.90;;;;;;4944032;28;20062;-44
2023/03/23 09:40:33;;;;;;;5.15;1.20;;;16.40;49.80;;;;;;4943539;28;20062;-46
2023/03/23 09:43:13;;;;;;;5.05;1.10;;;16.40;49.70;;;;;;4944244;28;20388;-47
2023/03/23 09:45:49;;;;;;;4.75;1.50;;;16.40;49.70;;;;;;4944734;28;20051;-45
2023/03/23 09:48:33;;;;;;;2.70;0.70;;;16.40;49.60;;;;;;4943778;28;20055;-45
2023/03/23 09:51:06;;;;;;;5.20;1.00;;;16.40;49.40;;;;;;4943494;28;20051;-45
2023/03/23 09:53:38;;;;;;;2.83;0.93;;;16.40;49.40;;;;;;4941069;28;20058;-47
2023/03/23 09:56:11;;;;;;;3.85;0.88;;;16.40;49.40;;;;;;4940795;28;20054;-44
2023/03/23 09:58:45;;;;;;;3.53;0.85;;;16.40;49.50;;;;;;4943409;28;20055;-46
2023/03/23 10:01:19;;;;;;;5.60;2.38;;;16.40;49.60;;;;;;4943271;28;20047;-44
2023/03/23 10:03:47;;;;;;;5.15;1.25;;;16.40;49.70;;;;;;4943473;28;20423;-44
2023/03/23 10:06:18;;;;;;;5.75;2.58;;;16.40;49.70;;;;;;4942509;28;20598;-47
2023/03/23 10:08:50;;;;;;;4.88;1.38;;;16.40;50.10;;;;;;4942992;28;20062;-44
2023/03/23 10:11:25;;;;;;;2.28;0.82;;;16.50;49.60;;;;;;4941077;28;20506;-47
2023/03/23 10:14:03;;;;;;;4.00;1.20;;;16.50;49.60;;;;;;4941490;28;20059;-45
2023/03/23 10:16:40;;;;;;;1.88;0.80;;;16.50;49.50;;;;;;4944998;28;20059;-44
2023/03/23 10:19:13;;;;;;;2.45;0.90;;;16.50;49.50;;;;;;4943878;28;20062;-44
2023/03/23 10:21:46;;;;;;;2.13;0.73;;;16.50;49.60;;;;;;4947665;28;20059;-46
2023/03/23 10:24:17;;;;;;;1.20;0.50;;;16.50;49.70;;;;;;4946081;28;20082;-44
2023/03/23 10:26:55;;;;;;;2.20;0.60;;;16.50;49.70;;;;;;4946068;28;20055;-44
2023/03/23 10:29:28;;;;;;;1.88;0.68;;;16.50;49.70;;;;;;4946570;28;20078;-45
2023/03/23 10:32:01;;;;;;;2.20;0.75;;;16.50;49.80;;;;;;4946583;28;20063;-44
2023/03/23 10:34:33;;;;;;;3.45;0.63;;;16.50;49.70;;;;;;4947567;28;20055;-46
2023/03/23 10:37:06;;;;;;;1.98;0.68;;;16.50;49.70;;;;;;4949264;28;20521;-44
2023/03/23 10:39:42;;;;;;;1.98;0.57;;;16.50;49.70;;;;;;4945793;28;20048;-47
2023/03/23 10:42:16;;;;;;;0.82;0.40;;;16.50;49.70;;;;;;4944905;28;20065;-46
2023/03/23 10:44:45;;;;;;;1.67;0.77;;;16.50;49.80;;;;;;4946868;28;20495;-46
2023/03/23 10:47:15;;;;;;;1.08;0.60;;;16.50;50.00;;;;;;4947357;28;20158;-45
2023/03/23 10:49:46;;;;;;;1.10;0.50;;;16.50;50.10;;;;;;4947683;28;20078;-47
2023/03/23 10:52:30;;;;;;;1.70;0.60;;;16.50;50.20;;;;;;4948804;28;20051;-45
2023/03/23 10:54:59;;;;;;;3.80;1.50;;;16.50;50.30;;;;;;4946538;28;20066;-47
2023/03/23 10:57:29;;;;;;;1.92;0.98;;;16.50;50.80;;;;;;4945778;28;20509;-45
2023/03/23 11:00:05;;;;;;;1.55;0.63;;;16.60;50.50;;;;;;4947016;28;20524;-44
2023/03/23 11:02:40;;;;;;;1.25;0.60;;;16.60;50.50;;;;;;4947362;28;20062;-45
2023/03/23 11:05:17;;;;;;;0.82;0.55;;;16.60;50.40;;;;;;4946121;28;20074;-46
2023/03/23 11:07:51;;;;;;;1.67;0.68;;;16.60;50.40;;;;;;4944885;28;21196;-43
2023/03/23 11:10:24;;;;;;;2.05;0.60;;;16.60;50.30;;;;;;4947450;28;20073;-46
2023/03/23 11:12:52;;;;;;;0.82;0.40;;;16.70;50.30;;;;;;4944985;28;20062;-48
2023/03/23 11:15:27;;;;;;;1.98;0.70;;;16.70;50.40;;;;;;4946764;28;20169;-46
2023/03/23 11:18:01;;;;;;;1.85;0.50;;;16.70;50.20;;;;;;4947325;28;20157;-45
2023/03/23 11:20:30;;;;;;;;;;;16.70;50.20;;;;;;4947120;28;20512;-45
2023/03/23 11:22:58;;;;;;;1.38;0.50;;;16.80;50.30;;;;;;4945670;28;20016;-44
2023/03/23 11:25:26;;;;;;;1.42;0.50;;;16.80;50.20;;;;;;4947711;28;20059;-44
2023/03/23 11:27:54;;;;;;;0.75;0.40;;;16.80;50.30;;;;;;4946432;28;20062;-48
2023/03/23 11:30:26;;;;;;;0.63;0.50;;;16.80;50.20;;;;;;4947181;28;20515;-44
2023/03/23 11:32:56;;;;;;;1.73;0.82;;;16.80;50.20;;;;;;4946443;28;20051;-44
2023/03/23 11:35:28;;;;;;;1.77;0.50;;;16.90;50.10;;;;;;4945795;28;20065;-44
2023/03/23 11:37:57;;;;;;;1.23;0.45;;;16.80;50.00;;;;;;4946060;28;20583;-46
2023/03/23 11:40:27;;;;;;;2.00;0.60;;;16.90;50.10;;;;;;4946650;28;20047;-44
2023/03/23 11:43:00;;;;;;;7.45;3.97;;;16.90;50.10;;;;;;4944750;28;20463;-46
2023/03/23 11:45:34;;;;;;;4.00;1.38;;;16.90;50.10;;;;;;4946656;28;20047;-46
2023/03/23 11:48:22;;;;;;;3.20;0.55;;;16.90;50.20;;;;;;4946100;28;20411;-44
2023/03/23 11:50:54;;;;;;;1.30;0.80;;;16.90;50.20;;;;;;4947267;28;20078;-45
2023/03/23 11:53:34;;;;;;;3.85;0.75;;;16.90;50.00;;;;;;4946522;28;20423;-51
2023/03/23 11:56:09;;;;;;;4.43;0.73;;;16.90;50.10;;;;;;4946643;28;20441;-46
2023/03/23 11:58:40;;;;;;;0.98;0.52;;;17.00;50.10;;;;;;4946745;28;20494;-48
2023/03/23 12:01:15;;;;;;;1.25;0.52;;;17.00;50.20;;;;;;4947547;28;20058;-45
2023/03/23 12:04:06;;;;;;;1.92;0.70;;;17.00;50.10;;;;;;4946890;28;20070;-46
2023/03/23 12:06:45;;;;;;;4.88;0.70;;;17.00;49.80;;;;;;4944364;28;20055;-47
2023/03/23 12:09:25;;;;;;;1.42;0.60;;;17.10;49.60;;;;;;4945456;28;20055;-46
2023/03/23 12:12:05;;;;;;;2.17;0.60;;;17.10;49.60;;;;;;4944696;28;20500;-44
2023/03/23 12:14:40;;;;;;;1.05;0.50;;;17.20;49.60;;;;;;4946734;28;20055;-45
2023/03/23 12:17:20;;;;;;;2.30;0.50;;;17.10;49.50;;;;;;4945893;28;20479;-44
2023/03/23 12:20:10;;;;;;;3.80;0.80;;;17.20;49.40;;;;;;4945046;28;20055;-46
2023/03/23 12:22:50;;;;;;;3.92;0.82;;;17.20;49.20;;;;;;4944893;28;20058;-45
2023/03/23 12:25:53;;;;;;;2.83;0.80;;;17.20;49.20;;;;;;4945064;28;20058;-49
2023/03/23 12:28:39;;;;;;;2.40;0.90;;;17.30;49.30;;;;;;4943230;28;20065;-53
2023/03/23 12:31:14;;;;;;;2.05;0.77;;;17.30;49.30;;;;;;4945804;28;20682;-45
2023/03/23 12:33:51;;;;;;;1.55;0.63;;;17.20;48.80;;;;;;4947839;28;20470;-47
2023/03/23 12:36:33;;;;;;;1.30;0.60;;;17.20;48.70;;;;;;4944346;28;20058;-45
2023/03/23 12:39:15;;;;;;;1.27;0.55;;;17.30;48.80;;;;;;4945870;28;20059;-54
2023/03/23 12:41:51;;;;;;;0.88;0.60;;;17.30;48.80;;;;;;4944859;28;20051;-48
2023/03/23 12:44:22;;;;;;;1.38;0.63;;;17.30;48.60;;;;;;4945530;28;20074;-48
2023/03/23 12:47:05;;;;;;;1.17;0.60;;;17.30;48.60;;;;;;4945579;28;20059;-48
2023/03/23 12:49:36;;;;;;;2.38;1.00;;;17.30;48.70;;;;;;4945618;28;20051;-55
2023/03/23 12:52:12;;;;;;;1.88;0.88;;;17.40;48.70;;;;;;4946410;28;20051;-50
2023/03/23 12:54:51;;;;;;;2.80;0.82;;;17.40;49.00;;;;;;4945440;28;20062;-48
2023/03/23 12:57:27;;;;;;;4.85;0.60;;;17.40;48.50;;;;;;4944099;28;20062;-46
2023/03/23 12:59:57;;;;;;;2.05;0.73;;;17.40;48.50;;;;;;4945939;28;20066;-49
2023/03/23 13:02:29;;;;;;;3.38;0.93;;;17.40;48.50;;;;;;4946481;28;20495;-49
2023/03/23 13:05:03;;;;;;;5.95;0.95;;;17.40;48.50;;;;;;4945869;28;20055;-49
2023/03/23 13:07:36;;;;;;;3.88;1.02;;;17.40;48.50;;;;;;4944952;28;20077;-48